Longmire, Washington
Current Conditions -  °F | °C
As of 3:23 AM on Saturday 25 Oct 2014 (Local Time) from KTCM Reporting Station
Haze Haze  
Wind Chill: 46°   Ceiling: Unl
Heat Index: 46°   Visibility: 2mi
Dew Point: 46°   Wind: 0mph
Humidity: 100%   Direction: NA
Pressure: 29.6"   Gusts: NA
Location:  46.75°N, 121.81°W
Report Text: KTCM 251023Z AUTO 00000KT 2SM R34/5500FT BR CLR 08/08 A2960 RMK AO2 VIS 1 3/4V3 $
Loading
Personal Weather Stations






























Interactive Weather Map
Tropical Storm Tracking
New forecast layout! Learn more

10-Day Weather Forecast

Advertisements
Track Severe Weather on mobile